OFS weather

San Carlos Airport
Tacotalpa, Tabasco, Mexico

Public forecast

Using degrees Celsius for public forecast. Weather courtesy of forecast.io.

Closest aviation weather report (METAR) to San Carlos Airport

Closest report is Carlos Rovirosa Pérez International Airport, 24.8 nm (45.9 km) N. Retrieved 2019/12/09 19:41 UTC (1 hour ago):

MMVA 091941Z 12010KT 7SM SCT012 28/21 A2988 RMK 8/100

Closest aviation forecast (TAF) to San Carlos Airport

Closest forecast is Carlos Rovirosa Pérez International Airport, 24.8 nm (45.9 km) N. Retrieved 2019/12/09 18:00 UTC (3 hours ago):

TAF MMVA 091655Z 0918/1018 08006KT P6SM SCT020 FM100600 10003KT 5SM BR HZ BKN010 TEMPO 1012/1014 1SM BR BKN006 FM101500 10005KT 5SM BR HZ SCT015